South Hadley, Massachusetts
Current Conditions -  °F | °C
As of 2:58 PM on Saturday 25 Oct 2014 (Local Time) from KCEF Reporting Station
Few Clouds Few Clouds  
Wind Chill: 65°   Ceiling: Unl
Heat Index: 65°   Visibility: 10mi
Dew Point: 45°   Wind: 13mph
Humidity: 48%   Direction: 310°NW
Pressure: 29.64"   Gusts: NA
Location:  42.26°N, 72.58°W
Report Text: KCEF 251858Z AUTO 31011KT 10SM FEW047 19/07 A2964 RMK AO2 SLP043 T01850072
Loading
Personal Weather Stations






























Interactive Weather Map
Tropical Storm Tracking
New forecast layout! Learn more

10-Day Weather Forecast

Advertisements
Track Severe Weather on mobile